Time;durP1;ratioP1;P1;durP2;ratioP2;P2;SDS_P1;SDS_P2;PMS_P1;PMS_P2;Temp;Humidity;BMP_temperature;BMP_pressure;BME280_temperature;BME280_humidity;BME280_pressure;Samples;Min_cycle;Max_cycle;Signal;HPM_P1;HPM_P2
2022/04/13 00:00:48;;;;;;;15.30;11.77;;;;;;;5.29;80.15;98873.19;4974336;28;20042;-76
2022/04/13 00:03:14;;;;;;;16.40;11.90;;;;;;;5.10;80.57;98854.25;4973978;28;20375;-76
2022/04/13 00:05:40;;;;;;;17.02;12.10;;;;;;;5.25;80.95;98870.59;4974943;28;20034;-76
2022/04/13 00:08:08;;;;;;;15.90;11.18;;;;;;;5.13;81.00;98849.97;4974926;28;20047;-76
2022/04/13 00:10:34;;;;;;;16.65;11.80;;;;;;;5.21;80.83;98861.16;4975303;28;20052;-77
2022/04/13 00:13:00;;;;;;;14.88;10.95;;;;;;;5.24;80.56;98877.44;4973520;28;20045;-77
2022/04/13 00:15:26;;;;;;;15.93;11.23;;;;;;;5.37;80.60;98873.22;4974624;28;20498;-76
2022/04/13 00:17:51;;;;;;;15.45;11.10;;;;;;;5.31;80.74;98858.63;4974929;28;20138;-76
2022/04/13 00:20:17;;;;;;;14.77;10.38;;;;;;;5.32;80.66;98880.06;4972949;28;20506;-76
2022/04/13 00:22:43;;;;;;;17.30;12.13;;;;;;;5.17;79.90;98859.41;4974662;28;20651;-75
2022/04/13 00:25:08;;;;;;;16.65;11.75;;;;;;;5.20;80.45;98864.56;4974785;28;20038;-75
2022/04/13 00:27:34;;;;;;;15.95;11.57;;;;;;;5.22;80.93;98868.88;4973467;28;20054;-76
2022/04/13 00:30:00;;;;;;;17.20;11.15;;;;;;;5.22;80.29;98862.84;4974792;28;20045;-76
2022/04/13 00:32:25;;;;;;;15.90;12.05;;;;;;;5.18;80.80;98871.41;4954333;29;20043;-76
2022/04/13 00:34:51;;;;;;;16.85;11.73;;;;;;;5.13;80.96;98868.81;4973277;28;20042;-76
2022/04/13 00:37:17;;;;;;;16.48;11.05;;;;;;;5.16;81.13;98878.25;4973488;28;20053;-76
2022/04/13 00:39:43;;;;;;;16.92;11.43;;;;;;;5.15;80.71;98881.69;4973621;28;20671;-76
2022/04/13 00:42:09;;;;;;;16.02;11.10;;;;;;;5.15;81.33;98886.84;4957471;28;20471;-76
2022/04/13 00:44:35;;;;;;;18.17;10.75;;;;;;;5.06;81.67;98862.78;4973100;28;20065;-76
2022/04/13 00:47:03;;;;;;;15.75;11.07;;;;;;;5.19;81.71;98875.72;4974195;28;20117;-76
2022/04/13 00:49:29;;;;;;;14.60;10.82;;;;;;;5.15;81.23;98861.97;4953932;28;20477;-76
2022/04/13 00:52:00;;;;;;;15.88;10.45;;;;;;;5.27;81.56;98881.75;4970664;28;20070;-76
2022/04/13 00:54:27;;;;;;;13.25;9.45;;;;;;;5.34;81.26;98868.06;4973161;28;20074;-75
2022/04/13 00:56:54;;;;;;;16.90;10.60;;;;;;;5.24;80.81;98868.88;4955900;28;20042;-77
2022/04/13 00:59:19;;;;;;;13.40;9.60;;;;;;;5.40;80.69;98878.38;4953977;28;20491;-75
2022/04/13 01:01:49;;;;;;;16.33;10.45;;;;;;;5.49;79.74;98883.53;4968484;28;20038;-75
2022/04/13 01:04:16;;;;;;;12.88;9.43;;;;;;;5.41;78.93;98884.41;4972793;28;20514;-75
2022/04/13 01:06:42;;;;;;;14.45;10.32;;;;;;;5.41;80.02;98894.69;4972542;28;20391;-75
2022/04/13 01:09:08;;;;;;;20.60;12.10;;;;;;;5.17;79.31;98885.13;4956291;28;20038;-75
2022/04/13 01:11:33;;;;;;;13.20;9.35;;;;;;;5.20;80.02;98874.84;4973784;28;20037;-75
2022/04/13 01:13:59;;;;;;;15.27;11.15;;;;;;;5.17;80.36;98887.69;4956722;28;20526;-75
2022/04/13 01:16:25;;;;;;;16.52;11.00;;;;;;;5.09;80.54;98891.09;4969379;28;20039;-76
2022/04/13 01:18:52;;;;;;;16.95;10.90;;;;;;;5.02;80.07;98891.03;4971666;28;20481;-75
2022/04/13 01:21:19;;;;;;;16.63;10.88;;;;;;;4.99;80.36;98883.31;4973304;28;20432;-75
2022/04/13 01:23:46;;;;;;;14.55;10.13;;;;;;;5.13;81.27;98888.53;4973434;28;20051;-76
2022/04/13 01:26:12;;;;;;;16.63;11.13;;;;;;;5.24;81.50;98884.31;4973813;28;20486;-76
2022/04/13 01:28:38;;;;;;;15.18;10.70;;;;;;;5.23;81.21;98890.31;4972459;28;20054;-75
2022/04/13 01:31:04;;;;;;;16.30;10.93;;;;;;;5.26;80.67;98887.72;4953088;28;20035;-75
2022/04/13 01:33:30;;;;;;;15.18;10.75;;;;;;;5.25;80.41;98879.16;4965853;28;20449;-75
2022/04/13 01:36:00;;;;;;;16.77;11.13;;;;;;;5.18;80.29;98886.84;4972109;28;20038;-74
2022/04/13 01:38:28;;;;;;;14.02;10.52;;;;;;;5.16;80.04;98881.69;4973638;28;20038;-75
2022/04/13 01:40:55;;;;;;;17.45;9.77;;;;;;;5.15;80.70;98885.13;4955887;28;20062;-75
2022/04/13 01:43:20;;;;;;;14.82;10.25;;;;;;;5.14;80.66;98880.84;4973475;28;20035;-75
2022/04/13 01:45:46;;;;;;;17.60;11.00;;;;;;;4.88;79.79;98872.13;4973186;28;20504;-75
2022/04/13 01:48:12;;;;;;;16.42;11.27;;;;;;;4.81;80.84;98881.47;4973371;28;20039;-76
2022/04/13 01:50:37;;;;;;;14.05;10.18;;;;;;;4.90;82.05;98878.97;4972035;28;20042;-75
2022/04/13 01:53:03;;;;;;;13.82;9.73;;;;;;;5.03;81.55;98870.47;4973028;28;20410;-75
2022/04/13 01:55:29;;;;;;;16.77;10.88;;;;;;;5.19;81.75;98881.72;4972173;28;20049;-75
2022/04/13 01:57:54;;;;;;;14.77;10.88;;;;;;;5.22;80.34;98883.41;4971772;28;20049;-75
2022/04/13 02:00:20;;;;;;;14.73;10.80;;;;;;;5.04;79.70;98885.06;4973175;28;20100;-75
2022/04/13 02:02:46;;;;;;;16.83;10.60;;;;;;;5.07;80.25;98879.06;4972008;28;20058;-74
2022/04/13 02:05:12;;;;;;;13.48;9.27;;;;;;;5.09;80.46;98885.97;4971681;28;20113;-75
2022/04/13 02:07:37;;;;;;;13.85;10.10;;;;;;;5.13;80.41;98893.66;4972018;28;20034;-75
2022/04/13 02:10:05;;;;;;;14.15;10.38;;;;;;;5.09;80.85;98888.53;4971711;28;20053;-75
2022/04/13 02:12:32;;;;;;;14.65;10.75;;;;;;;5.05;80.29;98894.50;4972161;28;20043;-75
2022/04/13 02:14:57;;;;;;;16.60;10.20;;;;;;;5.00;80.35;98891.03;4971765;28;20050;-75
2022/04/13 02:17:23;;;;;;;15.52;11.02;;;;;;;4.99;81.11;98897.00;4973233;28;20506;-74
2022/04/13 02:19:49;;;;;;;15.63;10.77;;;;;;;4.82;80.80;98866.09;4972653;28;20061;-75
2022/04/13 02:22:15;;;;;;;15.15;10.63;;;;;;;4.90;80.48;98899.53;4972922;28;20050;-74
2022/04/13 02:24:40;;;;;;;15.13;10.98;;;;;;;4.91;80.49;98901.28;4972923;28;20042;-74
2022/04/13 02:27:07;;;;;;;15.38;10.55;;;;;;;4.89;81.34;98908.09;4971397;28;20089;-77
2022/04/13 02:29:36;;;;;;;13.73;9.98;;;;;;;4.89;81.17;98902.94;4972742;28;20039;-74
2022/04/13 02:32:03;;;;;;;14.63;10.63;;;;;;;4.94;80.87;98916.69;4956020;28;20118;-75
2022/04/13 02:34:29;;;;;;;14.80;10.10;;;;;;;5.01;81.23;98915.88;4971943;28;20045;-75
2022/04/13 02:36:55;;;;;;;14.20;9.90;;;;;;;5.17;80.82;98910.81;4973062;28;20034;-75
2022/04/13 02:39:20;;;;;;;14.40;10.52;;;;;;;5.13;80.52;98909.09;4971708;28;20047;-75
2022/04/13 02:41:46;;;;;;;14.32;10.20;;;;;;;5.09;80.23;98909.09;4972909;28;20046;-75
2022/04/13 02:44:12;;;;;;;16.55;10.50;;;;;;;5.08;80.67;98916.78;4974259;28;20045;-75
2022/04/13 02:46:38;;;;;;;14.77;10.30;;;;;;;4.95;79.38;98918.44;4975530;28;20097;-75
2022/04/13 02:49:03;;;;;;;15.10;10.88;;;;;;;4.95;80.32;98915.88;4976211;28;20517;-75
2022/04/13 02:51:29;;;;;;;15.88;11.63;;;;;;;4.92;80.46;98920.97;4975582;28;20509;-75
2022/04/13 02:53:55;;;;;;;16.98;11.18;;;;;;;4.85;80.41;98924.34;4959343;28;20146;-75
2022/04/13 02:56:21;;;;;;;15.40;11.27;;;;;;;4.86;80.73;98918.38;4974939;28;20122;-75
2022/04/13 02:58:46;;;;;;;15.30;10.98;;;;;;;4.89;80.60;98931.22;4976222;28;20031;-76
2022/04/13 03:01:12;;;;;;;13.80;10.20;;;;;;;4.92;80.90;98940.69;4976237;28;20502;-75
2022/04/13 03:03:38;;;;;;;15.88;10.38;;;;;;;4.93;80.72;98937.25;4959040;28;20732;-75
2022/04/13 03:06:03;;;;;;;15.35;11.10;;;;;;;4.79;80.25;98939.72;4974922;28;20042;-75
2022/04/13 03:08:29;;;;;;;15.93;11.07;;;;;;;4.73;80.79;98947.41;4974926;28;20457;-75
2022/04/13 03:10:55;;;;;;;15.35;10.50;;;;;;;4.90;81.01;98953.50;4976252;28;20042;-76
2022/04/13 03:13:21;;;;;;;14.38;9.80;;;;;;;5.00;81.34;98957.03;4974915;28;20047;-75
2022/04/13 03:15:47;;;;;;;14.95;9.30;;;;;;;4.94;81.26;98955.25;4971777;28;20039;-75
2022/04/13 03:18:12;;;;;;;13.65;10.18;;;;;;;4.85;80.72;98939.75;4971280;28;20043;-76
2022/04/13 03:20:38;;;;;;;13.40;9.07;;;;;;;4.96;80.72;98960.41;4975751;28;20054;-76
2022/04/13 03:23:04;;;;;;;16.58;10.60;;;;;;;4.95;81.22;98967.28;4974521;28;20058;-75
2022/04/13 03:25:29;;;;;;;16.90;11.23;;;;;;;4.96;81.14;98957.84;4976075;28;20136;-76
2022/04/13 03:27:55;;;;;;;13.18;9.45;;;;;;;5.10;80.31;98957.09;4958779;28;20058;-76
2022/04/13 03:30:22;;;;;;;15.13;10.10;;;;;;;5.08;79.62;98969.03;4975455;28;20070;-76
2022/04/13 03:32:48;;;;;;;13.52;8.93;;;;;;;5.18;79.78;98974.25;4977442;28;20057;-76
2022/04/13 03:35:14;;;;;;;12.18;8.48;;;;;;;5.09;80.11;98960.50;4958370;28;20034;-77
2022/04/13 03:37:40;;;;;;;16.20;10.80;;;;;;;5.26;79.85;98975.16;4974817;28;20050;-75
2022/04/13 03:40:06;;;;;;;;;;;;;;;5.30;79.92;98975.19;4949645;29;20043;-75
2022/04/13 03:42:34;;;;;;;12.68;8.60;;;;;;;5.27;79.07;98977.75;4971284;28;19924;-77
2022/04/13 03:45:08;;;;;;;14.70;9.70;;;;;;;5.18;78.88;98979.38;4958741;28;20054;-75
2022/04/13 03:47:35;;;;;;;14.48;9.93;;;;;;;5.23;79.79;98982.88;4974629;28;20525;-75
2022/04/13 03:50:00;;;;;;;12.48;8.82;;;;;;;5.37;79.34;98980.38;4975512;28;20049;-75
2022/04/13 03:52:26;;;;;;;15.82;9.82;;;;;;;5.32;78.74;98981.22;4975891;28;20039;-76
2022/04/13 03:54:52;;;;;;;12.50;9.77;;;;;;;5.29;79.07;98965.75;4974314;28;20078;-75
2022/04/13 03:57:17;;;;;;;14.40;9.52;;;;;;;5.23;78.85;98968.31;4959837;28;20450;-75
2022/04/13 03:59:43;;;;;;;12.77;9.18;;;;;;;5.14;78.67;98952.81;4975505;28;20038;-75
2022/04/13 04:02:09;;;;;;;12.98;9.10;;;;;;;5.28;78.60;98979.47;4974207;28;20241;-76
2022/04/13 04:04:34;;;;;;;13.98;9.75;;;;;;;5.13;78.89;98955.38;4974413;28;20039;-76
2022/04/13 04:07:00;;;;;;;14.32;9.20;;;;;;;5.31;78.86;98982.09;4974125;28;20034;-76
2022/04/13 04:09:26;;;;;;;12.93;9.38;;;;;;;5.35;79.04;98994.06;4974172;28;20085;-76
2022/04/13 04:11:51;;;;;;;12.57;8.40;;;;;;;5.36;79.17;98984.69;4974669;28;20073;-76
2022/04/13 04:14:17;;;;;;;13.90;9.40;;;;;;;5.44;79.13;98988.13;4973806;28;20070;-76
2022/04/13 04:16:43;;;;;;;13.00;9.43;;;;;;;5.44;78.38;98975.28;4974397;28;20047;-78
2022/04/13 04:19:09;;;;;;;17.13;10.38;;;;;;;5.49;77.58;98991.59;4974528;28;20113;-76
2022/04/13 04:21:35;;;;;;;13.85;9.43;;;;;;;5.49;77.56;98985.59;4975147;28;20038;-76
2022/04/13 04:24:00;;;;;;;;;;;;;;;5.52;78.07;98996.75;4974951;28;20125;-75
2022/04/13 04:26:26;;;;;;;12.77;8.93;;;;;;;5.53;78.26;98992.47;4972945;28;20449;-76
2022/04/13 04:28:52;;;;;;;14.13;9.15;;;;;;;5.40;77.70;98978.69;4974286;28;20368;-76
2022/04/13 04:31:49;;;;;;;11.55;8.77;;;;;;;5.41;77.17;98967.56;4972790;28;20141;-76
2022/04/13 04:34:04;;;;;;;14.52;9.60;;;;;;;5.51;76.89;98996.75;4959546;28;20122;-76
2022/04/13 04:36:29;;;;;;;15.43;9.15;;;;;;;5.59;77.60;98992.53;4973700;28;20035;-75
2022/04/13 04:38:55;;;;;;;17.50;8.15;;;;;;;5.78;76.81;99009.75;4973706;28;20399;-76
2022/04/13 04:41:21;;;;;;;14.18;8.60;;;;;;;5.85;77.17;99008.91;4974884;28;20050;-76
2022/04/13 04:43:46;;;;;;;13.68;9.20;;;;;;;5.84;76.91;99001.19;4972945;28;20110;-76
2022/04/13 04:46:12;;;;;;;11.07;8.30;;;;;;;5.96;76.21;99008.16;4956841;28;20038;-77
2022/04/13 04:48:42;;;;;;;14.48;9.15;;;;;;;5.87;75.99;99011.53;4974560;28;20053;-77
2022/04/13 04:51:08;;;;;;;11.73;8.00;;;;;;;5.82;75.98;99010.66;4973671;28;20038;-77
2022/04/13 04:53:34;;;;;;;13.68;9.45;;;;;;;5.82;76.47;99011.50;4973431;28;20077;-77
2022/04/13 04:56:00;;;;;;;;;;;;;;;5.93;76.83;99024.44;4974560;28;20043;-76
2022/04/13 04:58:26;;;;;;;19.63;9.00;;;;;;;5.84;75.81;99020.06;4973344;28;19914;-75
2022/04/13 05:00:53;;;;;;;13.32;9.68;;;;;;;5.45;75.76;98989.88;4973194;28;20042;-76
2022/04/13 05:03:19;;;;;;;14.63;9.48;;;;;;;5.44;75.63;99018.13;4972964;28;20033;-75
2022/04/13 05:05:44;;;;;;;12.13;8.85;;;;;;;5.38;77.39;98992.41;4972800;28;20050;-77
2022/04/13 05:08:10;;;;;;;12.13;8.32;;;;;;;5.59;76.90;99000.25;4973071;28;20101;-76
2022/04/13 05:10:36;;;;;;;13.35;8.93;;;;;;;5.86;76.96;99041.56;4972727;28;20548;-77
2022/04/13 05:13:02;;;;;;;11.85;8.60;;;;;;;6.02;76.16;99034.78;4973777;28;20086;-77
2022/04/13 05:15:28;;;;;;;;;;;;;;;6.18;76.05;99042.56;4974297;28;20042;-76
2022/04/13 05:17:53;;;;;;;12.98;8.48;;;;;;;6.14;75.38;99043.38;5005887;28;19925;-75
2022/04/13 05:20:19;;;;;;;14.18;9.88;;;;;;;6.05;74.40;99041.66;4973796;28;20047;-77
2022/04/13 05:22:45;;;;;;;14.55;9.55;;;;;;;6.06;75.10;99049.38;4956491;28;20516;-75
2022/04/13 05:25:12;;;;;;;13.30;8.52;;;;;;;6.10;75.29;99056.28;4973943;28;20494;-76
2022/04/13 05:27:38;;;;;;;11.65;8.45;;;;;;;5.99;75.70;99050.19;4952971;28;20035;-74
2022/04/13 05:30:04;;;;;;;10.43;7.53;;;;;;;6.01;75.85;99068.25;4966700;28;20097;-76
2022/04/13 05:32:30;;;;;;;13.85;8.73;;;;;;;6.07;75.72;99063.97;4956871;28;20034;-77
2022/04/13 05:35:01;;;;;;;12.63;9.15;;;;;;;6.11;75.19;99065.72;4972937;28;20038;-76
2022/04/13 05:37:30;;;;;;;12.38;7.72;;;;;;;6.13;75.56;99062.28;4973022;28;20466;-76
2022/04/13 05:39:56;;;;;;;12.82;7.78;;;;;;;6.18;75.45;99063.16;4972373;28;20044;-76
2022/04/13 05:42:22;;;;;;;;;;;;;;;6.37;75.41;99067.53;4956958;28;20046;-76
2022/04/13 05:44:48;;;;;;;14.15;7.75;;;;;;;6.39;74.31;99073.53;4973727;28;19917;-77
2022/04/13 05:47:14;;;;;;;15.20;8.85;;;;;;;6.19;73.43;99064.91;4972627;28;20046;-77
2022/04/13 05:49:39;;;;;;;13.88;8.30;;;;;;;6.29;74.59;99070.09;4973451;28;20046;-77
2022/04/13 05:52:05;;;;;;;10.48;7.55;;;;;;;6.36;74.08;99073.53;4973716;28;20058;-76
2022/04/13 05:54:31;;;;;;;14.35;9.07;;;;;;;6.23;73.80;99058.88;4971911;28;20414;-76
2022/04/13 05:56:57;;;;;;;11.38;7.95;;;;;;;6.33;74.24;99069.25;4972340;28;20050;-76
2022/04/13 05:59:23;;;;;;;15.13;10.02;;;;;;;6.46;73.99;99090.75;4973763;28;20458;-76
2022/04/13 06:01:49;;;;;;;12.98;8.90;;;;;;;6.32;73.16;99069.22;4972442;28;20553;-76
2022/04/13 06:04:14;;;;;;;10.65;7.63;;;;;;;6.21;73.78;99058.03;4937404;29;20122;-76
2022/04/13 06:06:40;;;;;;;17.63;8.77;;;;;;;6.29;73.83;99072.66;4949192;28;20047;-77
2022/04/13 06:09:05;;;;;;;11.73;8.75;;;;;;;6.38;74.22;99089.88;4956504;28;20035;-77
2022/04/13 06:11:31;;;;;;;12.40;8.75;;;;;;;6.33;72.92;99076.97;4956210;28;20498;-77
2022/04/13 06:13:57;;;;;;;16.58;11.27;;;;;;;6.54;73.45;99094.19;4956654;28;20035;-76
2022/04/13 06:16:23;;;;;;;13.95;9.18;;;;;;;6.66;73.20;99106.28;4969195;28;20110;-77
2022/04/13 06:18:48;;;;;;;;;;;;;;;6.69;72.87;99110.56;4976183;28;20549;-77
2022/04/13 06:21:14;;;;;;;12.90;8.48;;;;;;;6.72;72.35;99110.56;4977318;28;19922;-77
2022/04/13 06:23:39;;;;;;;15.38;9.40;;;;;;;6.67;71.96;99112.28;4976080;28;20403;-76
2022/04/13 06:26:05;;;;;;;12.40;8.48;;;;;;;6.47;72.58;99089.03;4976238;28;20070;-77
2022/04/13 06:28:31;;;;;;;12.40;8.75;;;;;;;6.52;73.27;99105.38;4958477;28;20094;-78
2022/04/13 06:30:58;;;;;;;13.57;9.40;;;;;;;6.41;72.39;99083.84;4976148;28;20387;-78
2022/04/13 06:33:23;;;;;;;15.45;9.32;;;;;;;6.43;72.62;99106.19;4957382;28;20459;-77
2022/04/13 06:35:49;;;;;;;13.10;8.40;;;;;;;6.40;73.00;99100.16;4975936;28;20069;-77
2022/04/13 06:38:15;;;;;;;13.52;8.35;;;;;;;6.57;73.03;99114.81;4956956;29;20105;-76
2022/04/13 06:40:40;;;;;;;11.73;8.10;;;;;;;6.50;73.07;99100.19;4957452;28;20043;-77
2022/04/13 06:43:06;;;;;;;11.35;7.93;;;;;;;6.79;72.57;99135.53;4976072;28;20091;-78
2022/04/13 06:45:32;;;;;;;13.23;7.40;;;;;;;6.74;71.87;99138.09;4960017;28;20409;-77
2022/04/13 06:47:57;;;;;;;14.65;8.68;;;;;;;6.76;72.41;99122.63;4960025;28;20046;-77
2022/04/13 06:50:23;;;;;;;11.85;7.88;;;;;;;6.65;71.96;99109.72;4979570;28;20544;-77
2022/04/13 06:52:49;;;;;;;12.57;7.25;;;;;;;6.76;71.78;99122.63;4925084;28;20130;-77
2022/04/13 06:55:15;;;;;;;12.32;8.38;;;;;;;6.94;71.67;99145.84;4975706;28;20045;-79
2022/04/13 06:57:40;;;;;;;11.50;8.45;;;;;;;6.79;71.31;99113.19;4959636;28;20055;-77
2022/04/13 07:00:11;;;;;;;10.70;8.07;;;;;;;7.06;71.17;99148.47;4940511;29;20087;-77
2022/04/13 07:02:37;;;;;;;11.02;7.10;;;;;;;7.01;71.53;99138.97;4975696;28;20054;-75
2022/04/13 07:05:04;;;;;;;9.63;6.95;;;;;;;7.07;70.49;99139.00;4959817;28;20149;-76
2022/04/13 07:07:30;;;;;;;11.70;7.93;;;;;;;7.05;69.95;99157.03;4959566;28;20042;-78
2022/04/13 07:09:55;;;;;;;;;;;;;;;7.19;70.62;99153.63;4959489;28;20374;-77
2022/04/13 07:12:21;;;;;;;10.63;7.40;;;;;;;6.97;70.32;99142.44;4975079;28;19918;-77
2022/04/13 07:14:47;;;;;;;13.70;8.40;;;;;;;7.02;69.83;99151.03;4975304;28;20113;-76
2022/04/13 07:17:13;;;;;;;12.23;7.05;;;;;;;7.03;70.58;99158.78;4975301;28;20039;-77
2022/04/13 07:19:38;;;;;;;;;;;;;;;7.12;70.71;99163.94;4956085;29;20147;-75
2022/04/13 07:22:04;;;;;;;9.95;5.70;;;;;;;6.98;70.64;99147.59;5002073;28;19957;-80
2022/04/13 07:24:30;;;;;;;13.07;7.22;;;;;;;7.07;70.36;99173.41;4950474;28;20045;-78
2022/04/13 07:26:56;;;;;;;11.05;6.82;;;;;;;6.80;70.57;99134.66;4975374;28;20413;-81
2022/04/13 07:29:21;;;;;;;10.35;6.57;;;;;;;6.95;71.62;99155.31;4959281;28;20049;-78
2022/04/13 07:31:47;;;;;;;;;;;;;;;7.07;71.39;99178.56;4943633;28;20065;-77
2022/04/13 07:34:13;;;;;;;13.55;6.75;;;;;;;6.84;70.80;99151.84;4958962;28;19922;-77
2022/04/13 07:36:38;;;;;;;15.73;7.20;;;;;;;6.74;71.05;99147.53;4942962;28;20486;-79
2022/04/13 07:39:04;;;;;;;14.10;6.78;;;;;;;6.79;71.10;99153.56;4975752;28;20777;-77
2022/04/13 07:41:30;;;;;;;17.48;6.53;;;;;;;6.84;70.87;99146.69;4974510;28;20050;-77
2022/04/13 07:43:57;;;;;;;12.23;7.22;;;;;;;6.96;70.87;99172.50;4975934;28;20035;-78
2022/04/13 07:46:27;;;;;;;11.40;7.45;;;;;;;7.03;70.84;99187.16;4942981;28;20042;-77
2022/04/13 07:48:56;;;;;;;10.90;6.25;;;;;;;6.88;70.85;99143.28;4959323;28;20105;-76
2022/04/13 07:51:21;;;;;;;10.52;6.97;;;;;;;7.00;70.66;99165.63;4976062;28;20038;-78
2022/04/13 07:53:48;;;;;;;8.55;6.45;;;;;;;6.93;70.34;99158.75;4975035;28;20070;-76
2022/04/13 07:56:13;;;;;;;8.52;6.13;;;;;;;7.23;71.19;99192.34;4974633;28;20039;-76
2022/04/13 07:58:39;;;;;;;17.20;7.20;;;;;;;7.30;70.29;99188.91;4975710;28;20422;-77
2022/04/13 08:01:05;;;;;;;11.32;6.28;;;;;;;7.37;70.07;99206.13;4974450;28;20046;-76
2022/04/13 08:03:31;;;;;;;8.82;6.20;;;;;;;7.42;70.13;99198.38;4969568;28;20070;-77
2022/04/13 08:05:57;;;;;;;13.40;5.93;;;;;;;7.39;70.38;99194.09;4958559;28;20089;-77
2022/04/13 08:08:23;;;;;;;13.77;6.85;;;;;;;7.37;69.42;99188.06;4974611;28;20047;-75
2022/04/13 08:10:49;;;;;;;10.02;5.93;;;;;;;7.35;69.84;99171.72;4974038;28;20035;-76
2022/04/13 08:13:15;;;;;;;10.38;6.45;;;;;;;7.51;69.03;99203.53;4974222;28;20042;-76
2022/04/13 08:15:40;;;;;;;9.88;5.70;;;;;;;7.21;69.69;99149.34;4975365;28;20042;-77
2022/04/13 08:18:06;;;;;;;8.30;5.55;;;;;;;7.45;69.20;99193.22;4973128;28;20472;-76
2022/04/13 08:20:32;;;;;;;11.52;5.72;;;;;;;7.41;68.69;99181.19;4972570;28;20065;-77
2022/04/13 08:22:57;;;;;;;7.97;4.55;;;;;;;7.36;69.16;99195.81;4961470;28;20039;-77
2022/04/13 08:25:23;;;;;;;11.45;5.90;;;;;;;7.39;69.54;99195.81;4972782;28;20542;-78
2022/04/13 08:27:49;;;;;;;7.93;5.00;;;;;;;7.27;69.60;99154.50;4974174;28;20043;-74
2022/04/13 08:30:17;;;;;;;;;;;;;;;7.60;69.30;99200.97;4975667;28;20497;-80
2022/04/13 08:32:43;;;;;;;12.98;5.80;;;;;;;7.22;68.23;99179.44;4999664;28;20429;-77
2022/04/13 08:35:10;;;;;;;9.55;5.35;;;;;;;7.37;69.63;99213.00;4966867;28;20033;-75
2022/04/13 08:37:36;;;;;;;8.00;5.10;;;;;;;7.41;69.55;99193.22;4938949;29;20047;-78
2022/04/13 08:40:03;;;;;;;11.55;6.60;;;;;;;7.26;69.06;99176.00;4977388;28;20098;-77
2022/04/13 08:43:01;;;;;;;6.88;4.50;;;;;;;7.45;70.28;99213.88;4956167;28;20047;-74
2022/04/13 08:45:30;;;;;;;8.70;3.90;;;;;;;7.36;69.85;99183.75;4957446;28;20088;-75
2022/04/13 08:47:59;;;;;;;6.80;4.22;;;;;;;7.65;68.92;99206.13;4954827;28;20501;-77
2022/04/13 08:50:29;;;;;;;8.20;4.72;;;;;;;7.71;68.61;99210.47;4950403;28;20601;-77
2022/04/13 08:52:58;;;;;;;6.90;5.25;;;;;;;7.74;68.25;99188.06;4973994;28;20433;-77
2022/04/13 08:55:25;;;;;;;9.23;4.85;;;;;;;7.73;67.97;99196.69;4973918;28;20051;-76
2022/04/13 08:57:56;;;;;;;6.93;4.32;;;;;;;7.93;67.69;99221.66;4973759;28;20035;-76
2022/04/13 09:00:22;;;;;;;7.80;4.82;;;;;;;7.81;68.34;99214.75;4957276;28;20054;-77
2022/04/13 09:02:48;;;;;;;10.15;5.20;;;;;;;7.93;67.90;99226.81;4964431;28;20035;-76
2022/04/13 09:05:18;;;;;;;9.50;5.20;;;;;;;7.75;67.32;99202.72;4973239;28;20057;-78
2022/04/13 09:07:52;;;;;;;10.93;4.43;;;;;;;7.90;68.13;99218.19;4954928;28;20054;-76
2022/04/13 09:10:22;;;;;;;11.77;5.68;;;;;;;7.89;67.38;99224.22;4957269;28;20046;-78
2022/04/13 09:12:49;;;;;;;7.35;4.90;;;;;;;7.88;67.94;99221.66;4973676;28;20119;-78
2022/04/13 09:15:15;;;;;;;8.57;4.90;;;;;;;7.78;67.66;99215.59;4953684;28;20043;-76
2022/04/13 09:17:41;;;;;;;9.77;5.13;;;;;;;7.84;67.92;99209.59;4953944;29;20377;-78
2022/04/13 09:20:08;;;;;;;11.90;5.47;;;;;;;7.98;67.70;99225.94;4952912;28;20510;-78
2022/04/13 09:22:34;;;;;;;10.38;5.00;;;;;;;7.92;67.67;99232.81;4956981;28;20453;-77
2022/04/13 09:25:00;;;;;;;9.93;4.97;;;;;;;7.83;67.67;99210.44;4974478;28;20129;-81
2022/04/13 09:27:25;;;;;;;;;;;;;;;7.99;68.08;99225.09;4973499;28;20129;-79
2022/04/13 09:29:51;;;;;;;8.20;4.40;;;;;;;7.88;67.88;99211.34;4973204;28;19925;-82
2022/04/13 09:32:17;;;;;;;;;;;;;;;8.15;67.73;99221.63;4957501;28;20118;-79
2022/04/13 09:34:43;;;;;;;8.13;4.40;;;;;;;8.17;67.38;99228.53;4956868;28;20285;-80
2022/04/13 09:37:08;;;;;;;6.78;4.32;;;;;;;8.05;67.05;99207.00;4937928;29;20042;-77
2022/04/13 09:39:34;;;;;;;6.60;4.25;;;;;;;8.23;66.57;99231.09;4953481;28;20058;-76
2022/04/13 09:42:01;;;;;;;10.88;4.00;;;;;;;8.11;66.61;99206.16;4957068;28;20042;-78
2022/04/13 09:44:29;;;;;;;16.65;5.20;;;;;;;8.02;66.45;99212.19;4972891;28;20046;-77
2022/04/13 09:46:54;;;;;;;8.60;4.60;;;;;;;8.19;67.09;99234.53;4973584;28;20117;-78
2022/04/13 09:49:22;;;;;;;8.85;4.25;;;;;;;8.23;67.33;99231.09;4957689;28;20589;-79
2022/04/13 09:51:48;;;;;;;8.57;4.28;;;;;;;8.29;65.98;99236.22;4966968;28;20439;-79
2022/04/13 09:54:14;;;;;;;9.02;4.10;;;;;;;8.41;66.81;99238.84;4972013;28;20050;-79
2022/04/13 09:56:46;;;;;;;5.75;3.58;;;;;;;8.35;66.19;99226.75;4972742;28;20582;-78
2022/04/13 09:59:13;;;;;;;7.72;3.75;;;;;;;8.24;66.63;99212.13;4940487;28;20121;-77
2022/04/13 10:01:39;;;;;;;10.23;4.95;;;;;;;8.19;66.30;99194.03;4972740;28;20041;-77
2022/04/13 10:04:05;;;;;;;7.28;4.00;;;;;;;8.55;66.31;99236.22;4965591;28;20415;-78
2022/04/13 10:06:30;;;;;;;;;;;;;;;8.66;66.28;99242.22;4973878;28;20050;-77
2022/04/13 10:09:08;;;;;;;6.82;4.15;;;;;;;8.61;65.56;99233.59;4975559;28;20009;-76
2022/04/13 10:11:34;;;;;;;9.57;3.95;;;;;;;8.58;65.21;99246.56;4943712;28;20421;-77
2022/04/13 10:14:05;;;;;;;8.52;3.05;;;;;;;8.55;65.40;99237.06;4972435;28;20035;-77
2022/04/13 10:16:34;;;;;;;4.78;2.75;;;;;;;8.51;65.92;99216.41;4971961;28;20054;-78
2022/04/13 10:19:04;;;;;;;6.72;3.47;;;;;;;8.47;65.73;99215.53;4972303;28;20038;-76
2022/04/13 10:21:34;;;;;;;9.30;3.72;;;;;;;8.27;65.19;99228.50;4956380;28;20066;-82
2022/04/13 10:24:00;;;;;;;10.20;3.95;;;;;;;8.32;65.24;99215.56;4927297;28;20039;-78
2022/04/13 10:26:26;;;;;;;7.28;3.75;;;;;;;8.31;65.60;99224.19;4924676;28;20027;-77
2022/04/13 10:28:52;;;;;;;8.15;3.78;;;;;;;8.40;66.38;99244.88;4972126;28;20043;-77
2022/04/13 10:31:17;;;;;;;;;;;;;;;8.51;65.79;99256.03;4938493;29;20470;-76
2022/04/13 10:33:50;;;;;;;6.95;3.72;;;;;;;8.43;65.78;99237.13;4995581;28;19930;-76
2022/04/13 10:36:16;;;;;;;9.70;3.65;;;;;;;8.69;65.31;99252.53;4972555;28;20047;-77
2022/04/13 10:38:43;;;;;;;7.45;3.78;;;;;;;8.70;65.25;99253.41;4973886;28;20502;-77
2022/04/13 10:41:12;;;;;;;9.77;3.63;;;;;;;8.71;65.60;99242.22;4972416;28;20073;-78
2022/04/13 10:43:38;;;;;;;8.70;4.50;;;;;;;8.82;65.72;99246.47;4955084;28;20023;-78
2022/04/13 10:46:04;;;;;;;7.55;3.90;;;;;;;8.90;64.71;99256.78;4947471;28;20068;-78
2022/04/13 10:48:31;;;;;;;5.13;3.28;;;;;;;9.01;64.76;99259.34;4972090;28;20039;-77
2022/04/13 10:51:02;;;;;;;5.82;3.08;;;;;;;8.97;65.10;99255.88;4973338;28;20053;-77
2022/04/13 10:53:34;;;;;;;5.50;3.40;;;;;;;8.91;64.43;99246.44;4971781;28;20050;-77
2022/04/13 10:56:04;;;;;;;7.68;3.50;;;;;;;8.87;64.98;99247.31;4972343;28;20042;-77
2022/04/13 10:59:02;;;;;;;8.95;3.72;;;;;;;8.81;65.18;99256.84;4972112;28;20034;-78
2022/04/13 11:01:37;;;;;;;9.15;3.72;;;;;;;8.82;65.44;99263.72;4973099;28;20141;-77
2022/04/13 11:04:05;;;;;;;8.77;3.30;;;;;;;8.69;65.41;99267.19;4937980;28;20422;-80
2022/04/13 11:06:31;;;;;;;12.18;3.53;;;;;;;8.50;66.09;99243.97;4947971;28;20027;-81
2022/04/13 11:09:04;;;;;;;9.75;3.45;;;;;;;8.70;65.12;99269.78;4969170;28;20070;-79
2022/04/13 11:11:31;;;;;;;6.57;3.70;;;;;;;8.51;65.08;99248.28;4975792;28;20043;-79
2022/04/13 11:13:57;;;;;;;9.05;3.33;;;;;;;8.55;65.65;99259.47;4944019;28;20030;-79
2022/04/13 11:16:24;;;;;;;6.45;3.10;;;;;;;8.58;66.06;99262.94;4975438;28;20465;-80
2022/04/13 11:19:04;;;;;;;6.75;3.08;;;;;;;8.63;65.97;99268.09;4975811;28;20137;-79
2022/04/13 11:21:34;;;;;;;8.10;3.47;;;;;;;8.45;65.29;99237.97;4975426;28;20054;-77
2022/04/13 11:24:00;;;;;;;5.15;3.40;;;;;;;8.34;65.02;99230.22;4975430;28;20097;-78
2022/04/13 11:26:27;;;;;;;6.85;3.35;;;;;;;8.38;65.72;99262.09;4959447;28;20098;-76
2022/04/13 11:29:31;;;;;;;6.82;3.13;;;;;;;8.42;66.12;99270.72;4975326;28;20038;-78
2022/04/13 11:32:00;;;;;;;7.03;3.45;;;;;;;8.39;66.39;99274.19;4955791;28;20054;-77
2022/04/13 11:34:50;;;;;;;5.40;3.00;;;;;;;8.48;66.25;99276.75;4975242;28;20113;-77